createdAt,value
2022-08-20T00:02:16.438Z,23.70
2022-08-20T00:04:44.743Z,23.49
2022-08-20T00:07:14.466Z,23.27
2022-08-20T00:09:44.726Z,23.07
2022-08-20T00:12:18.055Z,22.79
2022-08-20T00:14:46.223Z,22.46
2022-08-20T00:17:14.347Z,22.16
2022-08-20T00:19:42.262Z,21.95
2022-08-20T00:22:10.338Z,21.94
2022-08-20T00:24:38.340Z,21.65
2022-08-20T00:27:07.260Z,21.73
2022-08-20T00:29:36.600Z,21.76
2022-08-20T00:32:04.758Z,21.67
2022-08-20T00:34:32.739Z,21.62
2022-08-20T00:37:00.631Z,21.55
2022-08-20T00:39:29.219Z,21.56
2022-08-20T00:41:57.565Z,21.58
2022-08-20T00:44:26.587Z,21.59
2022-08-20T00:46:55.843Z,21.51
2022-08-20T00:49:27.798Z,21.46
2022-08-20T00:52:02.747Z,21.58
2022-08-20T00:54:37.708Z,21.60
2022-08-20T00:57:11.674Z,21.63
2022-08-20T00:59:42.902Z,21.63
2022-08-20T01:02:16.165Z,21.71
2022-08-20T01:04:49.925Z,21.76
2022-08-20T01:07:20.507Z,21.60
2022-08-20T01:09:58.094Z,21.53
2022-08-20T01:12:29.471Z,21.58
2022-08-20T01:15:01.783Z,21.57
2022-08-20T01:17:41.606Z,21.59
2022-08-20T01:20:15.732Z,21.51
2022-08-20T01:23:13.220Z,21.49
2022-08-20T01:25:48.805Z,21.46
2022-08-20T01:28:22.750Z,21.65
2022-08-20T01:30:51.171Z,21.59
2022-08-20T01:33:24.469Z,21.62
2022-08-20T01:35:54.854Z,21.66
2022-08-20T01:38:24.089Z,21.68
2022-08-20T01:41:17.015Z,21.69
2022-08-20T01:43:46.786Z,21.59
2022-08-20T01:46:18.085Z,21.71
2022-08-20T01:48:47.780Z,21.67
2022-08-20T01:51:20.447Z,21.66
2022-08-20T01:53:52.215Z,21.61
2022-08-20T01:56:28.417Z,21.64
2022-08-20T01:59:00.278Z,21.60
2022-08-20T02:01:45.995Z,21.64
2022-08-20T02:04:21.144Z,21.59
2022-08-20T02:06:56.769Z,21.73
2022-08-20T02:09:29.257Z,21.73
2022-08-20T02:12:00.416Z,21.69
2022-08-20T02:14:30.362Z,21.63
2022-08-20T02:16:59.911Z,21.68
2022-08-20T02:19:35.723Z,21.79
2022-08-20T02:22:20.946Z,21.76
2022-08-20T02:24:49.984Z,21.66
2022-08-20T02:27:23.626Z,21.70
2022-08-20T02:29:52.457Z,21.64
2022-08-20T02:32:28.339Z,21.70
2022-08-20T02:35:04.405Z,21.72
2022-08-20T02:37:34.017Z,21.70
2022-08-20T02:40:03.623Z,21.66
2022-08-20T02:42:32.878Z,21.62
2022-08-20T02:45:01.709Z,21.66
2022-08-20T02:47:29.604Z,21.60
2022-08-20T02:49:59.582Z,21.64
2022-08-20T02:52:27.520Z,21.67
2022-08-20T02:54:55.363Z,21.69
2022-08-20T02:57:23.243Z,21.73
2022-08-20T02:59:53.348Z,21.69
2022-08-20T03:02:21.544Z,21.79
2022-08-20T03:04:49.496Z,21.79
2022-08-20T03:07:18.138Z,21.87
2022-08-20T03:09:45.971Z,21.85
2022-08-20T03:12:14.313Z,21.82
2022-08-20T03:14:42.307Z,21.82
2022-08-20T03:17:12.381Z,21.83
2022-08-20T03:19:40.314Z,21.71
2022-08-20T03:22:08.100Z,21.70
2022-08-20T03:24:35.905Z,21.79
2022-08-20T03:27:04.562Z,21.80
2022-08-20T03:29:32.433Z,21.87
2022-08-20T03:32:03.029Z,21.90
2022-08-20T03:34:35.267Z,21.70
2022-08-20T03:37:03.514Z,21.59
2022-08-20T03:39:31.443Z,21.59
2022-08-20T03:41:59.317Z,21.58
2022-08-20T03:44:27.288Z,21.52
2022-08-20T03:46:55.192Z,21.48
2022-08-20T03:49:24.316Z,21.39
2022-08-20T03:51:58.052Z,21.48
2022-08-20T03:54:29.110Z,21.45
2022-08-20T03:57:02.664Z,21.45
2022-08-20T03:59:34.454Z,21.34
2022-08-20T04:02:02.336Z,21.39
2022-08-20T04:04:30.303Z,21.33
2022-08-20T04:06:59.566Z,21.45
2022-08-20T04:09:30.238Z,21.46
2022-08-20T04:12:00.138Z,21.64
2022-08-20T04:14:29.310Z,21.67
2022-08-20T04:16:58.127Z,21.67
2022-08-20T04:19:27.045Z,21.66
2022-08-20T04:21:56.974Z,21.70
2022-08-20T04:24:32.214Z,21.63
2022-08-20T04:27:02.510Z,21.64
2022-08-20T04:29:32.507Z,21.56
2022-08-20T04:32:02.814Z,21.47
2022-08-20T04:34:35.179Z,21.37
2022-08-20T04:37:04.329Z,21.30
2022-08-20T04:39:33.743Z,21.42
2022-08-20T04:42:01.539Z,21.50
2022-08-20T04:44:29.403Z,21.70
2022-08-20T04:46:57.863Z,21.62
2022-08-20T04:49:26.374Z,21.55
2022-08-20T04:51:54.715Z,21.44
2022-08-20T04:54:22.722Z,21.44
2022-08-20T04:56:53.041Z,21.38
2022-08-20T04:59:20.924Z,21.53
2022-08-20T05:01:48.713Z,21.57
2022-08-20T05:04:16.542Z,21.63
2022-08-20T05:06:45.230Z,21.71
2022-08-20T05:09:16.247Z,21.65
2022-08-20T05:11:44.712Z,21.66
2022-08-20T05:14:14.693Z,21.67
2022-08-20T05:16:42.550Z,21.77
2022-08-20T05:19:13.351Z,21.90
2022-08-20T05:21:41.562Z,22.04
2022-08-20T05:24:12.146Z,21.91
2022-08-20T05:26:40.314Z,21.70
2022-08-20T05:29:08.297Z,21.65
2022-08-20T05:31:38.362Z,21.66
2022-08-20T05:34:11.881Z,21.74
2022-08-20T05:36:43.759Z,21.74
2022-08-20T05:39:13.637Z,21.68
2022-08-20T05:41:42.137Z,21.78
2022-08-20T05:44:13.956Z,21.88
2022-08-20T05:46:46.236Z,21.92
2022-08-20T05:49:21.190Z,21.89
2022-08-20T05:51:53.549Z,21.93
2022-08-20T05:54:22.305Z,21.97
2022-08-20T05:56:50.967Z,21.96
2022-08-20T05:59:22.281Z,21.89
2022-08-20T06:01:53.210Z,21.77
2022-08-20T06:04:28.305Z,21.69
2022-08-20T06:07:04.341Z,21.74
2022-08-20T06:09:36.083Z,21.67
2022-08-20T06:12:08.810Z,21.60
2022-08-20T06:14:36.937Z,21.72
2022-08-20T06:17:13.341Z,21.79
2022-08-20T06:19:44.531Z,22.06
2022-08-20T06:22:18.821Z,22.18
2022-08-20T06:24:54.964Z,22.32
2022-08-20T06:27:24.694Z,22.40
2022-08-20T06:29:53.779Z,22.63
2022-08-20T06:32:32.457Z,22.73
2022-08-20T06:35:02.119Z,22.48
2022-08-20T06:37:36.466Z,22.34
2022-08-20T06:40:09.357Z,22.24
2022-08-20T06:42:47.818Z,22.39
2022-08-20T06:47:48.300Z,22.40
2022-08-20T06:50:19.819Z,22.43
2022-08-20T06:52:52.282Z,22.38
2022-08-20T06:55:21.866Z,22.46
2022-08-20T06:57:58.094Z,22.39
2022-08-20T07:00:26.882Z,22.55
2022-08-20T07:02:56.366Z,22.79
2022-08-20T07:05:24.257Z,23.05
2022-08-20T07:07:52.683Z,23.19
2022-08-20T07:10:24.614Z,23.33
2022-08-20T07:12:52.580Z,23.44
2022-08-20T07:15:23.490Z,23.53
2022-08-20T07:17:56.459Z,24.04
2022-08-20T07:20:32.889Z,24.19
2022-08-20T07:23:01.768Z,23.67
2022-08-20T07:25:31.754Z,23.72
2022-08-20T07:28:02.236Z,24.01
2022-08-20T07:30:56.859Z,24.39
2022-08-20T07:33:25.969Z,24.65
2022-08-20T07:36:00.253Z,24.84
2022-08-20T07:38:30.076Z,24.96
2022-08-20T07:41:01.235Z,25.04
2022-08-20T07:43:29.982Z,25.23
2022-08-20T07:46:08.556Z,25.80
2022-08-20T07:48:40.129Z,25.41
2022-08-20T07:51:11.499Z,25.46
2022-08-20T07:53:40.893Z,25.20
2022-08-20T07:56:12.796Z,25.06
2022-08-20T07:58:49.867Z,25.18
2022-08-20T08:01:20.523Z,25.06
2022-08-20T08:03:50.058Z,24.92
2022-08-20T08:06:29.598Z,24.57
2022-08-20T08:09:05.946Z,24.75
2022-08-20T08:11:38.969Z,25.06
2022-08-20T08:14:09.811Z,25.63
2022-08-20T08:16:39.785Z,25.78
2022-08-20T08:19:11.834Z,26.15
2022-08-20T08:21:42.091Z,26.60
2022-08-20T08:24:12.677Z,27.10
2022-08-20T08:26:42.959Z,27.28
2022-08-20T08:29:14.419Z,27.58
2022-08-20T08:31:42.408Z,27.85
2022-08-20T08:34:10.462Z,27.93
2022-08-20T08:36:39.351Z,27.68
2022-08-20T08:39:08.603Z,27.46
2022-08-20T08:41:49.988Z,27.15
2022-08-20T08:44:23.453Z,27.42
2022-08-20T08:46:57.090Z,27.56
2022-08-20T08:49:37.622Z,27.08
2022-08-20T08:52:14.586Z,26.59
2022-08-20T08:54:48.904Z,27.22
2022-08-20T08:57:20.169Z,27.75
2022-08-20T09:00:03.872Z,28.47
2022-08-20T09:02:35.243Z,27.90
2022-08-20T09:05:19.242Z,27.53
2022-08-20T09:07:56.048Z,27.90
2022-08-20T09:10:25.424Z,28.25
2022-08-20T09:12:53.449Z,28.38
2022-08-20T09:15:21.955Z,28.65
2022-08-20T09:17:50.960Z,28.96
2022-08-20T09:20:19.410Z,29.23
2022-08-20T09:22:47.214Z,29.55
2022-08-20T09:25:26.029Z,29.50
2022-08-20T09:27:55.319Z,29.45
2022-08-20T09:30:23.238Z,28.83
2022-08-20T09:32:51.189Z,29.21
2022-08-20T09:35:21.222Z,29.04
2022-08-20T09:37:50.889Z,29.14
2022-08-20T09:40:21.350Z,29.19
2022-08-20T09:42:51.003Z,29.16
2022-08-20T09:45:20.688Z,29.30
2022-08-20T09:47:56.107Z,29.73
2022-08-20T09:50:27.038Z,29.56
2022-08-20T09:52:58.494Z,29.85
2022-08-20T09:55:33.392Z,29.36
2022-08-20T09:58:03.988Z,29.33
2022-08-20T10:00:33.454Z,29.59
2022-08-20T10:03:03.329Z,28.34
2022-08-20T10:05:31.738Z,27.77
2022-08-20T10:07:59.787Z,27.22
2022-08-20T10:10:32.750Z,27.33
2022-08-20T10:13:02.151Z,27.44
2022-08-20T10:15:33.154Z,27.37
2022-08-20T10:18:05.751Z,27.43
2022-08-20T10:20:35.641Z,27.62
2022-08-20T10:23:04.713Z,28.01
2022-08-20T10:25:32.633Z,28.08
2022-08-20T10:28:01.743Z,28.42
2022-08-20T10:30:29.674Z,28.60
2022-08-20T10:32:59.927Z,29.04
2022-08-20T10:35:29.043Z,29.55
2022-08-20T10:37:57.362Z,30.15
2022-08-20T10:40:25.530Z,30.28
2022-08-20T10:42:54.502Z,30.57
2022-08-20T10:45:22.671Z,30.75
2022-08-20T10:47:51.190Z,30.39
2022-08-20T10:50:20.524Z,29.50
2022-08-20T10:52:48.623Z,29.16
2022-08-20T10:55:22.171Z,28.55
2022-08-20T10:57:50.383Z,28.29
2022-08-20T11:00:19.596Z,28.40
2022-08-20T11:02:47.405Z,28.59
2022-08-20T11:05:17.058Z,28.36
2022-08-20T11:07:59.843Z,27.82
2022-08-20T11:10:33.241Z,26.45
2022-08-20T11:13:02.232Z,26.94
2022-08-20T11:15:30.357Z,26.83
2022-08-20T11:17:58.535Z,26.41
2022-08-20T11:20:27.086Z,26.50
2022-08-20T11:22:56.280Z,26.57
2022-08-20T11:25:27.819Z,26.36
2022-08-20T11:27:57.478Z,26.41
2022-08-20T11:30:29.876Z,25.90
2022-08-20T11:33:00.116Z,26.12
2022-08-20T11:35:43.487Z,26.43
2022-08-20T11:38:19.383Z,26.49
2022-08-20T11:40:47.672Z,26.80
2022-08-20T11:43:17.220Z,27.35
2022-08-20T11:45:50.680Z,27.81
2022-08-20T11:48:19.032Z,27.58
2022-08-20T11:50:47.931Z,27.41
2022-08-20T11:53:16.111Z,27.09
2022-08-20T11:55:47.384Z,27.12
2022-08-20T11:58:15.835Z,26.91
2022-08-20T12:00:43.821Z,26.60
2022-08-20T12:03:12.660Z,26.26
2022-08-20T12:05:44.331Z,26.32
2022-08-20T12:08:27.598Z,26.31
2022-08-20T12:11:01.466Z,26.33
2022-08-20T12:13:47.535Z,26.19
2022-08-20T12:16:18.819Z,26.04
2022-08-20T12:18:47.620Z,25.55
2022-08-20T12:21:16.504Z,25.58
2022-08-20T12:23:47.111Z,26.04
2022-08-20T12:26:16.696Z,26.20
2022-08-20T12:28:44.695Z,26.24
2022-08-20T12:31:15.739Z,26.11
2022-08-20T12:33:43.568Z,26.29
2022-08-20T12:36:11.497Z,26.89
2022-08-20T12:38:39.309Z,27.23
2022-08-20T12:41:07.151Z,27.49
2022-08-20T12:43:36.584Z,27.34
2022-08-20T12:46:04.623Z,28.07
2022-08-20T12:48:35.227Z,28.45
2022-08-20T12:51:03.228Z,29.10
2022-08-20T12:53:31.143Z,29.10
2022-08-20T12:55:58.996Z,29.91
2022-08-20T12:58:26.940Z,30.24
2022-08-20T13:00:56.152Z,30.95
2022-08-20T13:03:23.989Z,31.29
2022-08-20T13:05:51.803Z,30.42
2022-08-20T13:08:19.784Z,30.85
2022-08-20T13:10:48.234Z,31.19
2022-08-20T13:13:20.913Z,31.75
2022-08-20T13:15:50.848Z,32.77
2022-08-20T13:18:20.219Z,33.65
2022-08-20T13:20:48.670Z,33.64
2022-08-20T13:23:17.534Z,32.01
2022-08-20T13:25:45.466Z,31.00
2022-08-20T13:28:13.268Z,30.94
2022-08-20T13:30:41.492Z,30.89
2022-08-20T13:33:09.461Z,30.23
2022-08-20T13:35:41.019Z,29.75
2022-08-20T13:38:13.008Z,29.33
2022-08-20T13:40:41.098Z,29.32
2022-08-20T13:43:12.085Z,29.08
2022-08-20T13:45:41.185Z,28.82
2022-08-20T13:48:14.748Z,28.78
2022-08-20T13:50:46.853Z,29.07
2022-08-20T13:53:17.491Z,28.94
2022-08-20T13:55:47.448Z,28.84
2022-08-20T13:58:15.418Z,28.36
2022-08-20T14:00:45.210Z,28.23
2022-08-20T14:03:14.015Z,28.81
2022-08-20T14:05:49.423Z,29.16
2022-08-20T14:08:20.229Z,29.44
2022-08-20T14:10:51.639Z,30.00
2022-08-20T14:13:23.652Z,29.81
2022-08-20T14:15:52.332Z,29.71
2022-08-20T14:18:21.141Z,29.94
2022-08-20T14:20:51.172Z,29.66
2022-08-20T14:23:19.045Z,30.05
2022-08-20T14:25:50.031Z,30.44
2022-08-20T14:28:21.648Z,30.38
2022-08-20T14:30:52.871Z,30.55
2022-08-20T14:33:23.227Z,30.80
2022-08-20T14:35:53.235Z,30.70
2022-08-20T14:38:22.628Z,30.50
2022-08-20T14:40:51.212Z,30.74
2022-08-20T14:43:19.866Z,31.01
2022-08-20T14:45:47.814Z,30.36
2022-08-20T14:48:15.664Z,30.50
2022-08-20T14:50:43.512Z,30.37
2022-08-20T14:53:14.223Z,30.54
2022-08-20T14:55:42.283Z,30.81
2022-08-20T14:58:12.403Z,30.28
2022-08-20T15:00:42.192Z,29.94
2022-08-20T15:03:10.437Z,30.61
2022-08-20T15:05:39.938Z,30.74
2022-08-20T15:08:10.560Z,30.76
2022-08-20T15:10:40.318Z,30.63
2022-08-20T15:13:08.793Z,30.51
2022-08-20T15:15:36.893Z,30.47
2022-08-20T15:18:04.981Z,30.79
2022-08-20T15:20:35.909Z,29.65
2022-08-20T15:23:05.049Z,29.49
2022-08-20T15:25:37.491Z,29.05
2022-08-20T15:28:10.183Z,28.92
2022-08-20T15:30:41.527Z,28.81
2022-08-20T15:33:11.062Z,29.14
2022-08-20T15:35:39.800Z,29.11
2022-08-20T15:38:07.838Z,28.63
2022-08-20T15:40:36.092Z,28.46
2022-08-20T15:43:05.370Z,28.73
2022-08-20T15:45:36.090Z,28.47
2022-08-20T15:48:12.849Z,28.01
2022-08-20T15:51:02.863Z,28.08
2022-08-20T15:53:39.561Z,28.20
2022-08-20T15:56:20.519Z,28.02
2022-08-20T15:59:03.440Z,27.82
2022-08-20T16:01:46.350Z,27.53
2022-08-20T16:05:11.165Z,27.74
2022-08-20T16:07:54.568Z,27.62
2022-08-20T16:10:30.232Z,27.81
2022-08-20T16:13:06.204Z,27.85
2022-08-20T16:15:44.229Z,27.86
2022-08-20T16:18:23.096Z,27.93
2022-08-20T16:20:55.302Z,27.89
2022-08-20T16:23:31.185Z,27.94
2022-08-20T16:26:17.991Z,27.91
2022-08-20T16:29:10.511Z,27.97
2022-08-20T16:31:48.007Z,27.68
2022-08-20T16:34:33.630Z,27.62
2022-08-20T16:37:21.431Z,27.43
2022-08-20T16:40:01.370Z,27.35
2022-08-20T16:42:39.053Z,27.62
2022-08-20T16:45:20.068Z,27.87
2022-08-20T16:47:50.749Z,28.12
2022-08-20T16:50:25.855Z,28.12
2022-08-20T16:52:53.728Z,28.05
2022-08-20T16:55:23.495Z,27.60
2022-08-20T16:57:53.640Z,27.41
2022-08-20T17:00:26.274Z,27.25
2022-08-20T17:02:59.840Z,27.26
2022-08-20T17:05:44.801Z,27.23
2022-08-20T17:08:21.757Z,26.94
2022-08-20T17:10:59.763Z,27.04
2022-08-20T17:13:33.135Z,27.01
2022-08-20T17:16:07.135Z,27.21
2022-08-20T17:18:38.563Z,27.42
2022-08-20T17:21:23.114Z,27.61
2022-08-20T17:23:57.522Z,27.71
2022-08-20T17:26:32.608Z,27.75
2022-08-20T17:29:10.899Z,27.62
2022-08-20T17:31:43.174Z,27.60
2022-08-20T17:34:16.163Z,27.44
2022-08-20T17:36:56.808Z,27.53
2022-08-20T17:39:28.830Z,27.35
2022-08-20T17:42:08.709Z,27.34
2022-08-20T17:44:43.271Z,27.23
2022-08-20T17:47:16.780Z,27.21
2022-08-20T17:49:57.291Z,27.07
2022-08-20T17:52:41.513Z,26.90
2022-08-20T17:55:12.514Z,26.69
2022-08-20T17:57:44.782Z,26.65
2022-08-20T18:00:18.277Z,26.71
2022-08-20T18:02:46.098Z,26.52
2022-08-20T18:05:19.617Z,26.58
2022-08-20T18:08:12.185Z,26.54
2022-08-20T18:10:57.101Z,26.49
2022-08-20T18:13:48.067Z,26.44
2022-08-20T18:16:28.512Z,26.38
2022-08-20T18:19:11.900Z,26.34
2022-08-20T18:22:09.411Z,26.30
2022-08-20T18:24:45.048Z,26.31
2022-08-20T18:27:20.507Z,26.30
2022-08-20T18:29:57.050Z,26.21
2022-08-20T18:32:31.782Z,26.19
2022-08-20T18:35:13.338Z,26.13
2022-08-20T18:37:41.465Z,26.09
2022-08-20T18:40:28.679Z,26.03
2022-08-20T18:42:57.899Z,25.98
2022-08-20T18:45:33.068Z,26.02
2022-08-20T18:48:02.815Z,25.96
2022-08-20T18:50:44.328Z,25.93
2022-08-20T18:53:19.797Z,25.91
2022-08-20T18:56:05.697Z,25.89
2022-08-20T18:58:47.738Z,25.88
2022-08-20T19:01:16.005Z,25.82
2022-08-20T19:03:50.651Z,25.72
2022-08-20T19:06:39.114Z,25.70
2022-08-20T19:09:24.315Z,25.67
2022-08-20T19:12:29.706Z,25.49
2022-08-20T19:15:07.110Z,25.35
2022-08-20T19:17:56.513Z,25.29
2022-08-20T19:20:29.946Z,25.29
2022-08-20T19:23:06.064Z,25.31
2022-08-20T19:25:40.573Z,25.32
2022-08-20T19:28:21.106Z,25.31
2022-08-20T19:30:49.719Z,25.31
2022-08-20T19:33:29.693Z,25.28
2022-08-20T19:36:12.658Z,25.23
2022-08-20T19:38:50.198Z,25.15
2022-08-20T19:41:30.990Z,25.10
2022-08-20T19:44:02.479Z,25.08
2022-08-20T19:46:37.477Z,24.96
2022-08-20T19:49:20.671Z,24.86
2022-08-20T19:52:09.047Z,24.79
2022-08-20T19:54:48.450Z,24.66
2022-08-20T19:57:18.870Z,24.55
2022-08-20T19:59:58.972Z,24.40
2022-08-20T20:02:30.751Z,24.23
2022-08-20T20:04:58.651Z,24.10
2022-08-20T20:07:38.872Z,23.94
2022-08-20T20:10:19.639Z,23.81
2022-08-20T20:12:47.963Z,23.64
2022-08-20T20:15:21.179Z,23.45
2022-08-20T20:17:49.811Z,23.24
2022-08-20T20:20:25.555Z,23.08
2022-08-20T20:23:00.910Z,23.00
2022-08-20T20:25:42.215Z,22.89
2022-08-20T20:28:16.993Z,22.82
2022-08-20T20:30:48.562Z,22.68
2022-08-20T20:33:23.764Z,22.46
2022-08-20T20:36:04.179Z,22.36
2022-08-20T20:38:34.919Z,22.31
2022-08-20T20:41:06.185Z,22.24
2022-08-20T20:43:38.094Z,22.15
2022-08-20T20:46:16.448Z,21.99
2022-08-20T20:48:50.095Z,21.82
2022-08-20T20:51:25.678Z,21.65
2022-08-20T20:53:58.008Z,21.58
2022-08-20T20:56:34.693Z,21.46
2022-08-20T20:59:07.001Z,21.12
2022-08-20T21:01:49.578Z,21.01
2022-08-20T21:04:20.284Z,20.98
2022-08-20T21:06:48.924Z,20.99
2022-08-20T21:09:18.702Z,20.84
2022-08-20T21:11:47.281Z,20.86
2022-08-20T21:14:16.080Z,20.94
2022-08-20T21:16:45.710Z,20.89
2022-08-20T21:19:15.019Z,20.75
2022-08-20T21:21:43.905Z,20.73
2022-08-20T21:24:12.351Z,20.72
2022-08-20T21:26:41.009Z,20.65
2022-08-20T21:29:13.219Z,20.61
2022-08-20T21:31:44.073Z,20.56
2022-08-20T21:34:16.368Z,20.53
2022-08-20T21:36:45.150Z,20.43
2022-08-20T21:39:14.459Z,20.42
2022-08-20T21:41:44.365Z,20.39
2022-08-20T21:44:21.513Z,20.24
2022-08-20T21:46:50.353Z,20.19
2022-08-20T21:49:20.135Z,20.12
2022-08-20T21:51:49.248Z,20.10
2022-08-20T21:54:18.202Z,20.11
2022-08-20T21:56:51.804Z,20.14
2022-08-20T21:59:22.719Z,20.07
2022-08-20T22:01:51.312Z,19.96
2022-08-20T22:04:21.512Z,19.94
2022-08-20T22:06:50.169Z,19.86
2022-08-20T22:09:20.648Z,19.86
2022-08-20T22:11:53.977Z,19.72
2022-08-20T22:14:23.473Z,19.60
2022-08-20T22:16:51.559Z,19.64
2022-08-20T22:19:21.142Z,19.61
2022-08-20T22:21:50.222Z,19.56
2022-08-20T22:24:18.241Z,19.54
2022-08-20T22:26:46.227Z,19.47
2022-08-20T22:29:14.331Z,19.45
2022-08-20T22:31:44.072Z,19.41
2022-08-20T22:34:14.191Z,19.39
2022-08-20T22:36:43.617Z,19.31
2022-08-20T22:39:12.914Z,19.32
2022-08-20T22:41:41.199Z,19.37
2022-08-20T22:44:09.417Z,19.34
2022-08-20T22:46:44.997Z,19.24
2022-08-20T22:49:27.819Z,19.16
2022-08-20T22:51:57.586Z,19.11
2022-08-20T22:54:26.020Z,19.08
2022-08-20T22:56:55.101Z,19.04
2022-08-20T22:59:24.416Z,19.04
2022-08-20T23:01:53.966Z,19.08
2022-08-20T23:04:26.408Z,19.07
2022-08-20T23:06:55.789Z,19.02
2022-08-20T23:09:26.163Z,18.98
2022-08-20T23:11:54.558Z,18.98
2022-08-20T23:14:22.530Z,18.96
2022-08-20T23:17:03.446Z,18.97
2022-08-20T23:19:31.470Z,18.94
2022-08-20T23:21:59.507Z,18.90
2022-08-20T23:24:28.989Z,18.91
2022-08-20T23:26:57.367Z,18.93
2022-08-20T23:29:26.606Z,18.96
2022-08-20T23:31:56.854Z,18.92
2022-08-20T23:34:26.340Z,18.93
2022-08-20T23:36:56.881Z,18.94
2022-08-20T23:39:25.591Z,19.01
2022-08-20T23:41:55.879Z,19.03
2022-08-20T23:44:26.197Z,19.02
2022-08-20T23:46:58.379Z,19.00
2022-08-20T23:49:27.552Z,18.93
2022-08-20T23:51:55.982Z,18.85
2022-08-20T23:54:23.960Z,18.83
2022-08-20T23:56:55.525Z,18.79
2022-08-20T23:59:26.486Z,18.77
